map of YVR home
YVR - Airport
Location
City:  Vancouver, British Columbia, Canada
Name:Vancouver International Airport
ICAO:CYVR
IATA:YVR

Details
Type:Airport (Airfield)
Use:Public/Civil, International (customs port of entry)
Latitude:4911'41"N (49.194722)
Longitude:12311'02"W (-123.183888)
Elevation:13 ft (4 m)
Variation:16.12E (WMM2015 magnetic declination)
-0.16 annual change
Runways:3
Longest:11500 ft (3505 m), paved

Time
Time Zone:UTC-8 (DST-7)
Local Time:

Weather
METAR:CYVR 192200Z 29004KT 30SM FEW250 08/06 A3011 RMK CS1 CS TR SLP198
TAF:CYVR 192038Z 1921/2024 28007KT P6SM SKC
FM200600 10006KT P6SM BKN140
RMK NXT FCST BY 200000Z

Related Locations
Nearby:
Farthest:FTU: 10682 mi / 17191 km
Tolagnaro [Maurillac Airport (Fort Dauphin Airport)], MG

Find:

   beyond  
but within

Other Information
Maps:
NOTAMs:
Links:
Sources:

  
  • flag of Canada
  • flag of British Columbia
  • flag of Vancouver
  

Airport Diagram

Airport diagram for YVR

Airport diagram PDF

Sectional Chart

Flight Planning
at skyvector.com

Satellite Image

Google Maps Satellite view

 

Copyright © 2004-2018 Karl L. Swartz. All rights reserved.
The Great Circle Mapper name and logo are trademarks of the Great Circle Mapper.
All other trademarks mentioned herein belong to their respective owners.
Please see credits for attibutions and further copyright information.

  Follow gcmap on Facebook Follow gcmap on Twitter Follow gcmap on Google+ GCmap on LinkedIn

hCard Microformat

Geo Microformat